createdAt,value
2018-06-14T00:02:01.704Z,1.70
2018-06-14T00:04:29.720Z,2.10
2018-06-14T00:06:57.719Z,2.23
2018-06-14T00:09:25.722Z,2.10
2018-06-14T00:11:53.736Z,2.07
2018-06-14T00:14:21.741Z,2.20
2018-06-14T00:16:49.732Z,2.57
2018-06-14T00:19:17.740Z,2.10
2018-06-14T00:21:45.740Z,1.90
2018-06-14T00:24:13.736Z,2.00
2018-06-14T00:26:41.746Z,2.20
2018-06-14T00:29:09.743Z,2.03
2018-06-14T00:31:37.761Z,2.00
2018-06-14T00:34:05.784Z,3.03
2018-06-14T00:36:33.791Z,2.23
2018-06-14T00:39:01.940Z,2.60
2018-06-14T00:41:29.924Z,1.97
2018-06-14T00:43:57.986Z,2.37
2018-06-14T00:46:25.984Z,2.20
2018-06-14T00:48:54.252Z,1.90
2018-06-14T00:51:22.234Z,1.90
2018-06-14T00:53:50.235Z,2.17
2018-06-14T00:56:18.218Z,2.10
2018-06-14T00:58:46.255Z,2.20
2018-06-14T01:01:14.238Z,1.80
2018-06-14T01:03:42.230Z,2.07
2018-06-14T01:06:10.310Z,1.63
2018-06-14T01:08:38.332Z,2.33
2018-06-14T01:11:06.314Z,1.50
2018-06-14T01:13:34.302Z,2.20
2018-06-14T01:16:02.495Z,2.33
2018-06-14T01:18:30.476Z,2.30
2018-06-14T01:20:58.532Z,2.37
2018-06-14T01:23:26.519Z,2.50
2018-06-14T01:25:54.523Z,1.90
2018-06-14T01:28:22.512Z,1.90
2018-06-14T01:30:50.519Z,2.20
2018-06-14T01:33:18.528Z,1.83
2018-06-14T01:35:46.586Z,2.33
2018-06-14T01:38:23.665Z,1.90
2018-06-14T01:40:51.682Z,1.90
2018-06-14T01:43:20.279Z,1.67
2018-06-14T01:45:48.270Z,1.90
2018-06-14T01:48:16.519Z,1.93
2018-06-14T01:50:44.555Z,2.43
2018-06-14T01:53:12.565Z,1.60
2018-06-14T01:55:40.542Z,1.60
2018-06-14T01:58:08.510Z,1.93
2018-06-14T02:00:36.526Z,1.90
2018-06-14T02:03:04.656Z,1.67
2018-06-14T02:05:32.628Z,2.33
2018-06-14T02:08:00.668Z,1.87
2018-06-14T02:10:28.661Z,2.10
2018-06-14T02:12:56.646Z,2.27
2018-06-14T02:15:26.741Z,2.17
2018-06-14T02:17:54.730Z,2.60
2018-06-14T02:20:22.725Z,3.07
2018-06-14T02:22:50.737Z,1.97
2018-06-14T02:25:18.723Z,1.80
2018-06-14T02:27:46.718Z,2.23
2018-06-14T02:30:14.712Z,1.73
2018-06-14T02:32:42.730Z,2.00
2018-06-14T02:35:10.714Z,2.20
2018-06-14T02:37:41.637Z,2.00
2018-06-14T02:40:11.322Z,1.57
2018-06-14T02:42:39.622Z,1.70
2018-06-14T02:45:07.641Z,2.00
2018-06-14T02:47:35.626Z,2.33
2018-06-14T02:50:03.695Z,2.40
2018-06-14T02:52:31.634Z,1.83
2018-06-14T02:54:59.750Z,1.87
2018-06-14T02:57:27.775Z,1.60
2018-06-14T02:59:55.895Z,1.97
2018-06-14T03:02:23.928Z,2.27
2018-06-14T03:04:51.948Z,1.73
2018-06-14T03:07:25.396Z,2.40
2018-06-14T03:09:53.408Z,1.90
2018-06-14T03:12:21.423Z,2.10
2018-06-14T03:14:49.650Z,2.17
2018-06-14T03:17:18.644Z,2.17
2018-06-14T03:19:46.656Z,1.87
2018-06-14T03:22:14.885Z,2.53
2018-06-14T03:24:43.100Z,1.87
2018-06-14T03:27:11.352Z,1.83
2018-06-14T03:29:39.821Z,2.63
2018-06-14T03:32:07.812Z,2.53
2018-06-14T03:34:35.875Z,2.27
2018-06-14T03:37:03.860Z,2.27
2018-06-14T03:39:32.020Z,2.37
2018-06-14T03:42:05.187Z,2.20
2018-06-14T03:44:35.774Z,2.10
2018-06-14T03:47:04.825Z,2.43
2018-06-14T03:49:32.839Z,2.60
2018-06-14T03:52:00.989Z,2.30
2018-06-14T03:54:28.963Z,3.53
2018-06-14T03:56:57.300Z,2.23
2018-06-14T03:59:25.290Z,2.50
2018-06-14T04:01:53.287Z,2.87
2018-06-14T04:04:21.309Z,3.10
2018-06-14T04:06:49.302Z,3.40
2018-06-14T04:09:17.360Z,3.10
2018-06-14T04:11:45.363Z,2.60
2018-06-14T04:14:13.360Z,3.37
2018-06-14T04:16:41.351Z,2.90
2018-06-14T04:19:09.350Z,2.87
2018-06-14T04:21:37.571Z,3.23
2018-06-14T04:24:05.574Z,2.83
2018-06-14T04:26:33.648Z,3.10
2018-06-14T04:29:01.653Z,2.80
2018-06-14T04:31:29.649Z,3.13
2018-06-14T04:33:57.655Z,3.00
2018-06-14T04:36:25.643Z,2.83
2018-06-14T04:38:53.666Z,3.17
2018-06-14T04:41:21.651Z,2.77
2018-06-14T04:43:49.633Z,3.40
2018-06-14T04:46:17.687Z,3.20
2018-06-14T04:48:45.666Z,3.30
2018-06-14T04:51:14.042Z,3.47
2018-06-14T04:53:42.341Z,3.30
2018-06-14T04:56:12.555Z,3.10
2018-06-14T04:58:40.587Z,3.13
2018-06-14T05:01:09.002Z,3.40
2018-06-14T05:03:37.292Z,3.17
2018-06-14T05:06:05.568Z,3.30
2018-06-14T05:08:33.676Z,3.27
2018-06-14T05:11:01.745Z,2.73
2018-06-14T05:13:29.738Z,2.93
2018-06-14T05:16:01.015Z,3.30
2018-06-14T05:18:28.994Z,3.00
2018-06-14T05:20:56.974Z,3.70
2018-06-14T05:23:25.013Z,3.37
2018-06-14T05:25:53.001Z,3.63
2018-06-14T05:28:21.006Z,3.30
2018-06-14T05:30:49.024Z,3.57
2018-06-14T05:33:17.081Z,3.60
2018-06-14T05:35:45.083Z,2.83
2018-06-14T05:38:13.091Z,3.43
2018-06-14T05:40:41.092Z,3.10
2018-06-14T05:43:09.065Z,3.50
2018-06-14T05:45:37.189Z,3.47
2018-06-14T05:48:05.222Z,2.80
2018-06-14T05:50:33.385Z,2.80
2018-06-14T05:53:01.382Z,4.47
2018-06-14T05:55:29.570Z,2.90
2018-06-14T05:57:57.710Z,2.70
2018-06-14T06:00:25.737Z,3.10
2018-06-14T06:02:53.827Z,3.10
2018-06-14T06:05:22.090Z,3.13
2018-06-14T06:07:50.375Z,3.33
2018-06-14T06:10:18.551Z,3.23
2018-06-14T06:12:46.625Z,3.87
2018-06-14T06:15:14.649Z,3.00
2018-06-14T06:17:42.654Z,3.27
2018-06-14T06:20:15.120Z,3.10
2018-06-14T06:22:43.161Z,3.07
2018-06-14T06:25:11.182Z,3.43
2018-06-14T06:27:39.179Z,3.63
2018-06-14T06:30:07.318Z,2.90
2018-06-14T06:32:35.318Z,2.80
2018-06-14T06:35:03.667Z,3.20
2018-06-14T06:37:31.851Z,3.43
2018-06-14T06:39:59.826Z,3.30
2018-06-14T06:42:28.386Z,3.20
2018-06-14T06:44:56.579Z,3.23
2018-06-14T06:47:24.646Z,3.20
2018-06-14T06:49:53.015Z,3.00
2018-06-14T06:52:21.035Z,2.80
2018-06-14T06:54:49.772Z,3.23
2018-06-14T06:57:17.755Z,3.60
2018-06-14T06:59:45.811Z,3.07
2018-06-14T07:02:13.812Z,2.97
2018-06-14T07:04:41.814Z,2.73
2018-06-14T07:07:09.835Z,2.90
2018-06-14T07:09:37.802Z,2.90
2018-06-14T07:12:05.820Z,2.53
2018-06-14T07:14:33.824Z,2.40
2018-06-14T07:17:01.815Z,2.30
2018-06-14T07:19:29.819Z,2.20
2018-06-14T07:21:57.944Z,1.97
2018-06-14T07:24:25.914Z,2.10
2018-06-14T07:26:53.874Z,2.30
2018-06-14T07:29:21.875Z,2.30
2018-06-14T07:31:49.965Z,1.60
2018-06-14T07:34:17.951Z,2.37
2018-06-14T07:36:45.958Z,2.60
2018-06-14T07:39:13.946Z,2.20
2018-06-14T07:41:41.940Z,2.20
2018-06-14T07:44:09.949Z,2.17
2018-06-14T07:46:37.951Z,2.50
2018-06-14T07:49:05.941Z,2.03
2018-06-14T07:51:33.969Z,4.00
2018-06-14T07:54:02.367Z,1.70
2018-06-14T07:56:30.355Z,1.70
2018-06-14T07:58:58.375Z,2.00
2018-06-14T08:01:26.372Z,1.60
2018-06-14T08:03:54.429Z,2.10
2018-06-14T08:06:22.411Z,1.83
2018-06-14T08:08:50.404Z,1.57
2018-06-14T08:11:18.370Z,2.27
2018-06-14T08:13:46.377Z,1.67
2018-06-14T08:16:14.373Z,2.10
2018-06-14T08:18:42.370Z,1.73
2018-06-14T08:21:10.362Z,1.60
2018-06-14T08:23:38.412Z,1.60
2018-06-14T08:26:06.400Z,1.70
2018-06-14T08:28:34.378Z,1.93
2018-06-14T08:31:02.373Z,1.70
2018-06-14T08:33:30.370Z,2.00
2018-06-14T08:35:58.360Z,2.07
2018-06-14T08:38:26.399Z,1.60
2018-06-14T08:40:54.417Z,1.60
2018-06-14T08:43:22.409Z,2.03
2018-06-14T08:45:50.398Z,1.80
2018-06-14T08:48:18.398Z,2.53
2018-06-14T08:50:46.427Z,2.10
2018-06-14T08:53:14.427Z,1.53
2018-06-14T08:55:42.414Z,1.93
2018-06-14T08:58:10.443Z,1.60
2018-06-14T09:00:38.455Z,2.50
2018-06-14T09:03:06.444Z,1.60
2018-06-14T09:05:34.451Z,1.70
2018-06-14T09:08:02.452Z,2.50
2018-06-14T09:10:30.600Z,2.27
2018-06-14T09:12:58.586Z,1.70
2018-06-14T09:15:26.748Z,1.40
2018-06-14T09:17:54.756Z,1.97
2018-06-14T09:20:22.767Z,1.70
2018-06-14T09:22:50.821Z,2.10
2018-06-14T09:25:18.824Z,1.53
2018-06-14T09:27:46.815Z,1.73
2018-06-14T09:30:14.799Z,1.80
2018-06-14T09:32:42.788Z,1.70
2018-06-14T09:35:10.873Z,1.60
2018-06-14T09:37:38.900Z,1.77
2018-06-14T09:40:06.894Z,1.40
2018-06-14T09:42:34.891Z,2.00
2018-06-14T09:45:02.871Z,1.83
2018-06-14T09:47:30.877Z,1.20
2018-06-14T09:49:58.913Z,1.70
2018-06-14T09:52:26.894Z,2.80
2018-06-14T09:54:54.862Z,1.40
2018-06-14T09:57:22.858Z,1.60
2018-06-14T09:59:50.856Z,1.90
2018-06-14T10:02:18.933Z,2.00
2018-06-14T10:04:47.023Z,1.60
2018-06-14T10:07:15.035Z,1.90
2018-06-14T10:09:43.006Z,2.27
2018-06-14T10:12:11.007Z,1.40
2018-06-14T10:14:39.012Z,1.60
2018-06-14T10:17:07.028Z,1.67
2018-06-14T10:19:35.153Z,2.47
2018-06-14T10:22:03.167Z,2.60
2018-06-14T10:24:31.196Z,1.90
2018-06-14T10:26:59.307Z,1.90
2018-06-14T10:29:27.352Z,1.93
2018-06-14T10:31:55.330Z,1.50
2018-06-14T10:34:23.338Z,2.10
2018-06-14T10:36:51.365Z,1.40
2018-06-14T10:39:19.412Z,1.60
2018-06-14T10:41:47.452Z,1.60
2018-06-14T10:44:15.495Z,2.00
2018-06-14T10:46:43.466Z,1.40
2018-06-14T10:49:11.484Z,1.73
2018-06-14T10:51:39.483Z,1.90
2018-06-14T10:54:07.489Z,1.30
2018-06-14T10:56:35.474Z,1.30
2018-06-14T10:59:03.459Z,2.00
2018-06-14T11:01:31.454Z,1.33
2018-06-14T11:03:59.512Z,1.60
2018-06-14T11:06:27.620Z,1.60
2018-06-14T11:08:55.630Z,1.57
2018-06-14T11:11:23.621Z,1.50
2018-06-14T11:13:51.654Z,1.70
2018-06-14T11:16:19.645Z,1.70
2018-06-14T11:18:47.722Z,1.50
2018-06-14T11:21:15.707Z,1.83
2018-06-14T11:23:43.711Z,1.67
2018-06-14T11:26:11.724Z,1.20
2018-06-14T11:28:39.731Z,1.50
2018-06-14T11:31:07.747Z,1.40
2018-06-14T11:33:35.745Z,1.37
2018-06-14T11:36:03.752Z,1.80
2018-06-14T11:38:31.772Z,2.27
2018-06-14T11:40:59.812Z,1.70
2018-06-14T11:43:27.759Z,1.60
2018-06-14T11:45:55.774Z,1.90
2018-06-14T11:48:23.900Z,1.80
2018-06-14T11:50:51.841Z,1.20
2018-06-14T11:53:19.837Z,1.33
2018-06-14T11:55:47.854Z,1.20
2018-06-14T11:58:15.848Z,1.50
2018-06-14T12:00:43.674Z,1.37
2018-06-14T12:03:11.692Z,1.70
2018-06-14T12:05:40.399Z,1.60
2018-06-14T12:08:08.378Z,1.90
2018-06-14T12:10:36.439Z,1.53
2018-06-14T12:13:04.430Z,1.83
2018-06-14T12:15:32.404Z,1.67
2018-06-14T12:18:01.268Z,1.47
2018-06-14T12:20:29.250Z,1.17
2018-06-14T12:22:57.246Z,1.83
2018-06-14T12:25:25.230Z,1.27
2018-06-14T12:27:53.232Z,1.80
2018-06-14T12:30:21.410Z,1.60
2018-06-14T12:32:49.415Z,1.63
2018-06-14T12:35:17.449Z,1.30
2018-06-14T12:37:45.495Z,1.90
2018-06-14T12:40:13.483Z,1.73
2018-06-14T12:42:41.667Z,2.53
2018-06-14T12:45:09.987Z,2.00
2018-06-14T12:47:37.985Z,2.17
2018-06-14T12:50:06.241Z,1.50
2018-06-14T12:52:34.243Z,1.90
2018-06-14T12:55:02.244Z,1.90
2018-06-14T12:57:30.301Z,1.47
2018-06-14T12:59:58.383Z,1.73
2018-06-14T13:02:26.391Z,1.90
2018-06-14T13:04:54.398Z,1.67
2018-06-14T13:07:22.396Z,1.70
2018-06-14T13:09:50.374Z,1.57
2018-06-14T13:12:18.401Z,1.97
2018-06-14T13:14:46.375Z,2.00
2018-06-14T13:17:14.368Z,1.97
2018-06-14T13:19:42.372Z,1.70
2018-06-14T13:22:10.390Z,1.60
2018-06-14T13:24:41.634Z,2.00
2018-06-14T13:27:10.210Z,1.80
2018-06-14T13:29:38.168Z,1.63
2018-06-14T13:32:06.180Z,1.97
2018-06-14T13:34:34.578Z,2.00
2018-06-14T13:37:02.779Z,1.90
2018-06-14T13:39:30.807Z,2.00
2018-06-14T13:41:58.822Z,1.90
2018-06-14T13:44:26.896Z,1.57
2018-06-14T13:46:54.892Z,2.10
2018-06-14T13:49:22.905Z,1.87
2018-06-14T13:51:50.963Z,1.83
2018-06-14T13:54:19.099Z,2.10
2018-06-14T13:56:47.099Z,2.20
2018-06-14T13:59:15.090Z,2.20
2018-06-14T14:01:43.085Z,2.17
2018-06-14T14:04:11.124Z,2.13
2018-06-14T14:06:39.140Z,2.40
2018-06-14T14:09:09.008Z,2.17
2018-06-14T14:11:37.005Z,2.27
2018-06-14T14:14:05.038Z,2.10
2018-06-14T14:16:33.110Z,1.63
2018-06-14T14:19:01.124Z,2.13
2018-06-14T14:21:29.183Z,2.10
2018-06-14T14:23:57.215Z,2.30
2018-06-14T14:26:25.164Z,1.80
2018-06-14T14:28:53.165Z,2.10
2018-06-14T14:31:21.233Z,1.60
2018-06-14T14:33:49.295Z,2.00
2018-06-14T14:36:17.270Z,2.40
2018-06-14T14:38:45.364Z,1.87
2018-06-14T14:41:13.395Z,1.87
2018-06-14T14:43:41.401Z,1.80
2018-06-14T14:46:09.648Z,2.40
2018-06-14T14:48:37.638Z,1.70
2018-06-14T14:51:05.701Z,2.00
2018-06-14T14:53:33.670Z,2.70
2018-06-14T14:56:01.647Z,2.00
2018-06-14T14:58:29.477Z,3.00
2018-06-14T15:00:57.460Z,2.60
2018-06-14T15:03:25.539Z,1.60
2018-06-14T15:05:53.520Z,2.57
2018-06-14T15:08:21.524Z,1.97
2018-06-14T15:10:49.533Z,1.70
2018-06-14T15:13:17.623Z,1.90
2018-06-14T15:15:45.697Z,2.50
2018-06-14T15:18:13.678Z,1.73
2018-06-14T15:20:41.690Z,2.53
2018-06-14T15:23:09.685Z,2.10
2018-06-14T15:25:37.769Z,1.80
2018-06-14T15:28:05.837Z,2.30
2018-06-14T15:30:33.836Z,2.00
2018-06-14T15:33:01.833Z,2.20
2018-06-14T15:35:29.840Z,2.40
2018-06-14T15:37:57.817Z,1.97
2018-06-14T15:40:25.819Z,2.10
2018-06-14T15:42:53.909Z,3.03
2018-06-14T15:45:21.912Z,2.50
2018-06-14T15:47:49.927Z,1.60
2018-06-14T15:50:17.983Z,1.83
2018-06-14T15:52:45.971Z,2.77
2018-06-14T15:55:25.360Z,2.33
2018-06-14T15:57:53.498Z,2.20
2018-06-14T16:00:21.477Z,1.57
2018-06-14T16:02:49.591Z,2.30
2018-06-14T16:05:18.409Z,2.17
2018-06-14T16:07:47.259Z,2.47
2018-06-14T16:10:15.533Z,2.00
2018-06-14T16:12:43.602Z,2.10
2018-06-14T16:15:11.617Z,1.70
2018-06-14T16:17:39.617Z,2.00
2018-06-14T16:20:07.656Z,2.20
2018-06-14T16:22:35.624Z,1.90
2018-06-14T16:25:03.628Z,1.67
2018-06-14T16:27:31.719Z,1.43
2018-06-14T16:29:59.731Z,1.80
2018-06-14T16:32:27.711Z,2.20
2018-06-14T16:34:55.727Z,2.80
2018-06-14T16:37:23.725Z,3.63
2018-06-14T16:39:51.709Z,8.40
2018-06-14T16:42:19.705Z,2.00
2018-06-14T16:44:47.770Z,1.80
2018-06-14T16:47:15.859Z,2.00
2018-06-14T16:49:43.828Z,1.87
2018-06-14T16:52:11.818Z,2.00
2018-06-14T16:54:39.821Z,3.10
2018-06-14T16:57:07.815Z,1.90
2018-06-14T16:59:35.847Z,3.20
2018-06-14T17:02:04.448Z,2.30
2018-06-14T17:04:33.943Z,2.20
2018-06-14T17:07:03.243Z,2.60
2018-06-14T17:09:33.921Z,1.70
2018-06-14T17:12:01.950Z,2.20
2018-06-14T17:14:30.092Z,2.20
2018-06-14T17:16:58.274Z,2.10
2018-06-14T17:19:26.264Z,1.97
2018-06-14T17:21:54.300Z,2.53
2018-06-14T17:24:22.293Z,2.50
2018-06-14T17:26:50.110Z,2.20
2018-06-14T17:29:18.133Z,1.83
2018-06-14T17:31:46.134Z,2.03
2018-06-14T17:34:14.121Z,1.63
2018-06-14T17:36:42.108Z,1.83
2018-06-14T17:39:10.100Z,2.20
2018-06-14T17:41:38.149Z,1.83
2018-06-14T17:44:06.099Z,2.37
2018-06-14T17:46:34.092Z,1.70
2018-06-14T17:49:02.342Z,1.93
2018-06-14T17:51:30.445Z,2.20
2018-06-14T17:53:58.561Z,1.90
2018-06-14T17:56:26.687Z,1.93
2018-06-14T17:58:54.724Z,1.57
2018-06-14T18:01:22.817Z,1.87
2018-06-14T18:03:50.894Z,1.73
2018-06-14T18:06:18.973Z,2.50
2018-06-14T18:08:46.933Z,1.90
2018-06-14T18:11:15.771Z,2.10
2018-06-14T18:13:43.985Z,1.90
2018-06-14T18:16:12.008Z,2.03
2018-06-14T18:18:40.195Z,2.47
2018-06-14T18:21:08.304Z,1.37
2018-06-14T18:23:36.376Z,1.97
2018-06-14T18:26:04.366Z,1.90
2018-06-14T18:28:32.478Z,1.80
2018-06-14T18:31:00.533Z,1.60
2018-06-14T18:33:28.544Z,2.07
2018-06-14T18:35:56.560Z,1.70
2018-06-14T18:38:24.608Z,2.30
2018-06-14T18:40:52.664Z,2.10
2018-06-14T18:43:20.851Z,2.10
2018-06-14T18:45:48.911Z,2.07
2018-06-14T18:48:16.904Z,2.50
2018-06-14T18:50:44.960Z,2.50
2018-06-14T18:53:12.965Z,2.17
2018-06-14T18:55:41.156Z,2.77
2018-06-14T18:58:15.740Z,2.43
2018-06-14T19:00:43.784Z,2.83
2018-06-14T19:03:11.767Z,2.83
2018-06-14T19:05:39.802Z,2.30
2018-06-14T19:08:07.810Z,2.17
2018-06-14T19:10:35.782Z,3.03
2018-06-14T19:13:03.894Z,2.87
2018-06-14T19:15:31.874Z,2.60
2018-06-14T19:18:00.134Z,2.70
2018-06-14T19:20:28.208Z,2.53
2018-06-14T19:22:56.220Z,2.87
2018-06-14T19:25:24.370Z,3.13
2018-06-14T19:27:52.378Z,3.30
2018-06-14T19:30:20.365Z,5.03
2018-06-14T19:32:48.414Z,3.57
2018-06-14T19:35:16.408Z,4.60
2018-06-14T19:37:44.444Z,5.17
2018-06-14T19:40:12.434Z,5.27
2018-06-14T19:42:40.502Z,5.20
2018-06-14T19:45:08.552Z,6.17
2018-06-14T19:47:36.580Z,8.27
2018-06-14T19:50:04.594Z,8.73
2018-06-14T19:52:32.602Z,7.07
2018-06-14T19:55:00.628Z,4.60
2018-06-14T19:57:28.630Z,4.67
2018-06-14T19:59:56.703Z,5.10
2018-06-14T20:02:24.675Z,4.37
2018-06-14T20:04:52.675Z,4.87
2018-06-14T20:07:20.680Z,5.30
2018-06-14T20:09:48.670Z,4.53
2018-06-14T20:12:16.638Z,5.03
2018-06-14T20:14:44.631Z,4.53
2018-06-14T20:17:12.612Z,4.87
2018-06-14T20:19:40.638Z,4.10
2018-06-14T20:22:08.637Z,4.97
2018-06-14T20:24:36.867Z,5.30
2018-06-14T20:27:04.856Z,5.17
2018-06-14T20:29:32.838Z,4.63
2018-06-14T20:32:00.913Z,4.90
2018-06-14T20:34:28.898Z,4.37
2018-06-14T20:36:56.911Z,4.87
2018-06-14T20:39:24.912Z,4.07
2018-06-14T20:41:52.965Z,4.97
2018-06-14T20:44:20.948Z,4.80
2018-06-14T20:46:48.993Z,3.67
2018-06-14T20:49:17.049Z,5.13
2018-06-14T20:51:45.086Z,4.30
2018-06-14T20:54:13.038Z,5.30
2018-06-14T20:56:41.040Z,4.40
2018-06-14T20:59:09.060Z,5.30
2018-06-14T21:01:37.078Z,4.73
2018-06-14T21:04:05.104Z,4.50
2018-06-14T21:06:33.128Z,5.67
2018-06-14T21:09:01.215Z,5.30
2018-06-14T21:11:29.218Z,5.23
2018-06-14T21:13:57.214Z,4.87
2018-06-14T21:16:25.212Z,5.13
2018-06-14T21:18:53.281Z,4.83
2018-06-14T21:21:21.277Z,6.83
2018-06-14T21:23:49.290Z,5.60
2018-06-14T21:26:17.277Z,5.67
2018-06-14T21:28:45.276Z,5.57
2018-06-14T21:31:13.245Z,4.60
2018-06-14T21:33:41.367Z,4.60
2018-06-14T21:36:09.342Z,4.33
2018-06-14T21:38:37.330Z,5.27
2018-06-14T21:41:05.381Z,5.00
2018-06-14T21:43:33.446Z,4.73
2018-06-14T21:46:01.471Z,4.67
2018-06-14T21:48:29.446Z,5.30
2018-06-14T21:50:57.247Z,5.07
2018-06-14T21:53:25.321Z,4.80
2018-06-14T21:55:53.314Z,4.80
2018-06-14T21:58:21.325Z,4.80
2018-06-14T22:00:49.322Z,4.90
2018-06-14T22:03:22.942Z,4.70
2018-06-14T22:05:50.944Z,5.20
2018-06-14T22:08:18.945Z,5.47
2018-06-14T22:10:46.980Z,5.10
2018-06-14T22:13:14.961Z,5.10
2018-06-14T22:15:43.226Z,4.87
2018-06-14T22:18:11.306Z,5.00
2018-06-14T22:20:39.303Z,5.60
2018-06-14T22:23:07.344Z,4.40
2018-06-14T22:25:35.316Z,4.77
2018-06-14T22:28:03.321Z,5.17
2018-06-14T22:30:31.310Z,4.67
2018-06-14T22:33:10.987Z,4.90
2018-06-14T22:35:38.983Z,4.27
2018-06-14T22:38:06.975Z,5.50
2018-06-14T22:40:34.963Z,4.97
2018-06-14T22:43:02.974Z,5.20
2018-06-14T22:45:30.967Z,5.20
2018-06-14T22:47:58.954Z,5.13
2018-06-14T22:50:38.670Z,5.00
2018-06-14T22:53:08.658Z,4.27
2018-06-14T22:55:36.658Z,4.83
2018-06-14T22:58:04.644Z,5.37
2018-06-14T23:00:47.956Z,4.80
2018-06-14T23:03:15.969Z,4.83
2018-06-14T23:05:43.979Z,4.50
2018-06-14T23:08:12.119Z,5.20
2018-06-14T23:10:51.632Z,4.30
2018-06-14T23:13:19.875Z,4.53
2018-06-14T23:15:47.879Z,5.10
2018-06-14T23:18:15.851Z,4.77
2018-06-14T23:20:43.876Z,4.57
2018-06-14T23:23:11.853Z,4.50
2018-06-14T23:25:39.870Z,4.80
2018-06-14T23:28:07.867Z,4.40
2018-06-14T23:30:35.938Z,5.17
2018-06-14T23:33:03.955Z,4.40
2018-06-14T23:35:31.990Z,4.20
2018-06-14T23:37:59.974Z,4.40
2018-06-14T23:40:27.969Z,4.83
2018-06-14T23:42:55.984Z,5.10
2018-06-14T23:45:24.016Z,5.17
2018-06-14T23:47:52.023Z,5.00
2018-06-14T23:50:20.000Z,4.50
2018-06-14T23:52:47.986Z,4.97
2018-06-14T23:55:15.971Z,4.50
2018-06-14T23:57:43.973Z,4.60
